Time;durP1;ratioP1;P1;durP2;ratioP2;P2;SDS_P1;SDS_P2;PMS_P1;PMS_P2;Temp;Humidity;BMP_temperature;BMP_pressure;BME280_temperature;BME280_humidity;BME280_pressure;Samples;Min_cycle;Max_cycle;Signal;HPM_P1;HPM_P2
2023/04/07 00:00:12;;;;;;;;;;;;;;;-144.99;70.55;52358.41;4990750;28;19969;-79
2023/04/07 00:02:39;;;;;;;;;;;;;;;-144.99;70.66;52386.94;4991701;28;20360;-78
2023/04/07 00:05:06;;;;;;;;;;;;;;;-144.99;70.76;52350.25;5006226;28;19918;-79
2023/04/07 00:07:32;;;;;;;;;;;;;;;-144.99;70.78;52370.63;5003355;28;20139;-78
2023/04/07 00:09:59;;;;;;;;;;;;;;;-144.99;71.46;52362.50;4983376;28;19926;-77
2023/04/07 00:12:25;;;;;;;;;;;;;;;-144.99;71.88;52403.25;4992706;28;19937;-78
2023/04/07 00:14:53;;;;;;;;;;;;;;;-144.99;71.84;52342.09;4995774;28;19937;-78
2023/04/07 00:17:20;;;;;;;;;;;;;;;-144.99;72.14;52391.03;5005399;28;19926;-77
2023/04/07 00:19:46;;;;;;;;;;;;;;;-144.99;72.26;52386.94;5006124;28;19976;-80
2023/04/07 00:22:13;;;;;;;;;;;;;;;-144.99;72.36;52399.19;4989721;28;19983;-78
2023/04/07 00:24:39;;;;;;;;;;;;;;;-144.99;72.34;52374.72;4996859;28;19960;-77
2023/04/07 00:27:05;;;;;;;;;;;;;;;-144.99;72.35;52382.88;4991774;28;20049;-76
2023/04/07 00:29:32;;;;;;;;;;;;;;;-144.99;71.55;52386.94;4991234;28;20225;-77
2023/04/07 00:32:00;;;;;;;;;;;;;;;-144.99;71.45;52407.31;4991044;28;19961;-75
2023/04/07 00:34:26;;;;;;;;;;;;;;;-144.99;71.47;52411.41;4990325;28;20559;-78
2023/04/07 00:36:53;;;;;;;;;;;;;;;-144.99;71.56;52399.19;4980832;28;19980;-78
2023/04/07 00:39:20;;;;;;;;;;;;;;;-144.99;72.34;52364.53;4983128;28;19951;-76
2023/04/07 00:41:46;;;;;;;;;;;;;;;-144.99;72.84;52372.69;4990473;28;19984;-77
2023/04/07 00:44:13;;;;;;;;;;;;;;;-144.99;72.87;52399.19;4984787;28;19989;-76
2023/04/07 00:46:39;;;;;;;;;;;;;;;-144.99;73.06;52435.88;4991735;28;19925;-77
2023/04/07 00:49:08;;;;;;;;;;;;;;;-144.99;73.02;52417.53;4991044;28;20335;-76
2023/04/07 00:51:34;;;;;;;;;;;;;;;-144.99;72.29;52354.34;4991681;28;19965;-78
2023/04/07 00:54:01;;;;;;;;;;;;;;;-144.99;72.08;52397.13;4989604;28;19926;-76
2023/04/07 00:56:28;;;;;;;;;;;;;;;-144.99;71.89;52382.88;4990748;28;19980;-77
2023/04/07 00:58:55;;;;;;;;;;;;;;;-144.99;71.88;52409.38;4989729;28;19929;-76
2023/04/07 01:01:22;;;;;;;;;;;;;;;-144.99;71.81;52382.88;4990927;28;19977;-76
2023/04/07 01:03:52;;;;;;;;;;;;;;;-144.99;71.83;52391.03;4988202;28;19965;-76
2023/04/07 01:06:23;;;;;;;;;;;;;;;-144.99;71.87;52417.53;4990100;28;19973;-78
2023/04/07 01:08:53;;;;;;;;;;;;;;;-144.99;71.87;52386.94;4990988;28;19981;-77
2023/04/07 01:11:23;;;;;;;;;;;;;;;-144.99;71.81;52382.88;4990743;28;20008;-77
2023/04/07 01:13:50;;;;;;;;;;;;;;;-144.99;71.90;52395.09;4987982;28;19937;-76
2023/04/07 01:16:19;;;;;;;;;;;;;;;-144.99;71.88;52366.56;4989724;28;20185;-77
2023/04/07 01:18:48;;;;;;;;;;;;;;;-144.99;71.98;52423.63;4988612;28;20004;-79
2023/04/07 01:21:15;;;;;;;;;;;;;;;-144.99;71.92;52378.78;4990526;28;19984;-78
2023/04/07 01:24:03;;;;;;;;;;;;;;;-144.99;71.86;52386.94;4980347;28;19925;-77
2023/04/07 01:26:30;;;;;;;;;;;;;;;-144.99;72.01;52386.94;4994521;28;19969;-77
2023/04/07 01:29:21;;;;;;;;;;;;;;;-144.99;72.07;52366.56;4990842;28;19929;-78
2023/04/07 01:31:50;;;;;;;;;;;;;;;-144.99;72.42;52415.47;4980573;28;19960;-78
2023/04/07 01:34:17;;;;;;;;;;;;;;;-144.99;72.19;52395.09;4989888;28;19930;-78
2023/04/07 01:36:45;;;;;;;;;;;;;;;-144.99;72.26;52372.69;4991143;28;20025;-78
2023/04/07 01:39:12;;;;;;;;;;;;;;;-144.99;72.31;52403.25;4995083;28;19929;-78
2023/04/07 01:41:39;;;;;;;;;;;;;;;-144.99;72.79;52391.03;4992852;28;19938;-78
2023/04/07 01:44:06;;;;;;;;;;;;;;;-144.99;72.58;52380.84;4984281;28;19934;-77
2023/04/07 01:46:33;;;;;;;;;;;;;;;-144.99;72.48;52395.09;4991584;28;19987;-78
2023/04/07 01:49:01;;;;;;;;;;;;;;;-144.99;72.74;52376.75;4992647;28;19976;-79
2023/04/07 01:51:29;;;;;;;;;;;;;;;-144.99;72.98;52376.75;4994908;28;19929;-79
2023/04/07 01:53:56;;;;;;;;;;;;;;;-144.99;72.78;52435.88;4990408;28;19930;-77
2023/04/07 01:56:23;;;;;;;;;;;;;;;-144.99;72.83;52350.25;4992325;28;20431;-77
2023/04/07 01:58:49;;;;;;;;;;;;;;;-144.99;72.72;52421.59;4994960;28;19984;-78
2023/04/07 02:01:16;;;;;;;;;;;;;;;-144.99;73.06;52386.94;4993148;28;19930;-78
2023/04/07 02:03:44;;;;;;;;;;;;;;;-144.99;73.12;52386.94;5000916;28;19984;-79
2023/04/07 02:06:15;;;;;;;;;;;;;;;-144.99;72.89;52382.88;5006067;28;19934;-79
2023/04/07 02:08:46;;;;;;;;;;;;;;;-144.99;73.14;52382.88;5006718;28;19961;-79
2023/04/07 02:11:15;;;;;;;;;;;;;;;-144.99;73.11;52386.94;5009766;28;20074;-80
2023/04/07 02:13:42;;;;;;;;;;;;;;;-144.99;72.98;52395.09;5000842;28;19926;-80
2023/04/07 02:16:09;;;;;;;;;;;;;;;-144.99;73.19;52382.88;5012872;28;19914;-77
2023/04/07 02:18:36;;;;;;;;;;;;;;;-144.99;73.04;52382.88;5008647;28;19925;-79
2023/04/07 02:21:04;;;;;;;;;;;;;;;-144.99;73.26;52364.53;5008413;28;19933;-79
2023/04/07 02:23:34;;;;;;;;;;;;;;;-144.99;73.31;52366.56;5012699;28;19946;-79
2023/04/07 02:26:01;;;;;;;;;;;;;;;-144.99;73.52;52415.47;4996560;28;19925;-77
2023/04/07 02:28:27;;;;;;;;;;;;;;;-144.99;73.34;52417.53;4990328;28;19965;-79
2023/04/07 02:30:54;;;;;;;;;;;;;;;-144.99;74.25;52362.50;4994482;28;20023;-77
2023/04/07 02:33:20;;;;;;;;;;;;;;;-144.99;74.51;52427.72;4989954;28;19985;-78
2023/04/07 02:35:46;;;;;;;;;;;;;;;-144.99;74.67;52376.75;4987923;28;19984;-79
2023/04/07 02:38:13;;;;;;;;;;;;;;;-144.99;74.76;52407.31;4986615;28;19954;-78
2023/04/07 02:40:41;;;;;;;;;;;;;;;-144.99;74.79;52403.25;4994010;28;20428;-77
2023/04/07 02:43:07;;;;;;;;;;;;;;;-144.99;74.76;52362.50;4992716;28;19964;-76
2023/04/07 02:45:34;;;;;;;;;;;;;;;-144.99;74.89;52362.50;4991010;28;20049;-76
2023/04/07 02:48:00;;;;;;;;;;;;;;;-144.99;74.91;52407.31;4992220;28;19973;-76
2023/04/07 02:50:27;;;;;;;;;;;;;;;-144.99;75.14;52419.56;4993697;28;20292;-78
2023/04/07 02:52:54;;;;;;;;;;;;;;;-144.99;75.31;52378.78;4988694;28;20356;-76
2023/04/07 02:55:20;;;;;;;;;;;;;;;-144.99;75.37;52386.94;4992159;28;20016;-76
2023/04/07 02:57:48;;;;;;;;;;;;;;;-144.99;75.49;52384.91;4992770;28;19984;-78
2023/04/07 03:00:15;;;;;;;;;;;;;;;-144.99;75.62;52386.94;4994511;28;19969;-78
2023/04/07 03:02:42;;;;;;;;;;;;;;;-144.99;75.55;52409.38;4991976;28;19934;-78
2023/04/07 03:05:08;;;;;;;;;;;;;;;-144.99;75.79;52435.88;4993938;28;19965;-77
2023/04/07 03:07:35;;;;;;;;;;;;;;;-144.99;75.80;52382.88;4994629;28;20015;-76
2023/04/07 03:10:01;;;;;;;;;;;;;;;-144.99;75.69;52391.03;5003604;28;19926;-79
2023/04/07 03:12:28;;;;;;;;;;;;;;;-144.99;75.79;52362.50;5001910;28;19930;-79
2023/04/07 03:14:56;;;;;;;;;;;;;;;-144.99;75.93;52399.19;5005041;28;20123;-76
2023/04/07 03:17:22;;;;;;;;;;;;;;;-144.99;75.97;52411.41;5004098;28;20096;-78
2023/04/07 03:19:50;;;;;;;;;;;;;;;-144.99;75.98;52427.72;5001433;28;19992;-77
2023/04/07 03:22:17;;;;;;;;;;;;;;;-144.99;76.22;52415.47;5000468;28;20496;-79
2023/04/07 03:24:43;;;;;;;;;;;;;;;-144.99;76.21;52419.56;5005814;28;19926;-79
2023/04/07 03:27:10;;;;;;;;;;;;;;;-144.99;76.21;52397.13;5004642;28;19926;-79
2023/04/07 03:29:36;;;;;;;;;;;;;;;-144.99;76.54;52391.03;5006712;28;19933;-78
2023/04/07 03:32:04;;;;;;;;;;;;;;;-144.99;76.56;52354.34;5001454;28;19955;-79
2023/04/07 03:34:31;;;;;;;;;;;;;;;-144.99;76.68;52395.09;4999316;28;19925;-76
2023/04/07 03:36:57;;;;;;;;;;;;;;;-144.99;76.55;52374.72;4999830;28;19934;-78
2023/04/07 03:39:24;;;;;;;;;;;;;;;-144.99;76.66;52362.50;4997118;28;19930;-81
2023/04/07 03:41:51;;;;;;;;;;;;;;;-144.99;76.68;52366.56;4998373;28;19929;-77
2023/04/07 03:44:17;;;;;;;;;;;;;;;-144.99;76.75;52366.56;4995466;28;20776;-77
2023/04/07 03:46:44;;;;;;;;;;;;;;;-144.99;76.93;52405.28;5007317;28;19932;-77
2023/04/07 03:49:12;;;;;;;;;;;;;;;-144.99;76.96;52395.09;4995428;28;20401;-77
2023/04/07 03:51:38;;;;;;;;;;;;;;;-144.99;76.86;52391.03;5007366;28;19929;-83
2023/04/07 03:54:05;;;;;;;;;;;;;;;-144.99;77.09;52395.09;5008900;28;20005;-82
2023/04/07 03:56:31;;;;;;;;;;;;;;;-144.99;76.93;52435.88;4997531;28;20332;-80
2023/04/07 03:58:58;;;;;;;;;;;;;;;-144.99;76.96;52378.78;4995735;28;20466;-80
2023/04/07 04:01:24;;;;;;;;;;;;;;;-144.99;77.22;52419.56;4997079;28;20100;-82
2023/04/07 04:03:51;;;;;;;;;;;;;;;-144.99;77.30;52419.56;4994383;28;19930;-81
2023/04/07 04:06:19;;;;;;;;;;;;;;;-144.99;77.21;52417.53;4996045;28;20240;-82
2023/04/07 04:08:45;;;;;;;;;;;;;;;-144.99;77.23;52378.78;4998112;28;19926;-80
2023/04/07 04:11:12;;;;;;;;;;;;;;;-144.99;77.50;52358.41;4994286;28;19926;-79
2023/04/07 04:13:38;;;;;;;;;;;;;;;-144.99;77.25;52366.56;4988280;28;20120;-80
2023/04/07 04:16:05;;;;;;;;;;;;;;;-144.99;77.33;52386.94;4994678;28;19981;-79
2023/04/07 04:18:32;;;;;;;;;;;;;;;-144.99;77.33;52378.78;4993620;28;20042;-81
2023/04/07 04:20:58;;;;;;;;;;;;;;;-144.99;77.29;52374.72;4993102;28;19926;-79
2023/04/07 04:23:26;;;;;;;;;;;;;;;-144.99;77.55;52378.78;4989012;28;19973;-79
2023/04/07 04:25:53;;;;;;;;;;;;;;;-144.99;77.65;52370.63;4993851;28;19960;-79
2023/04/07 04:28:19;;;;;;;;;;;;;;;-144.99;77.51;52425.66;4997427;28;19961;-81
2023/04/07 04:30:47;;;;;;;;;;;;;;;-144.99;77.30;52366.56;4993270;28;20427;-76
2023/04/07 04:33:13;;;;;;;;;;;;;;;-144.99;77.38;52397.13;4990976;28;19934;-79
2023/04/07 04:35:40;;;;;;;;;;;;;;;-144.99;77.42;52362.50;5002988;28;19925;-80
2023/04/07 04:38:06;;;;;;;;;;;;;;;-144.99;77.35;52366.56;5005400;28;19920;-82
2023/04/07 04:40:34;;;;;;;;;;;;;;;-144.99;77.39;52370.63;5010807;28;19946;-81
2023/04/07 04:43:05;;;;;;;;;;;;;;;-144.99;77.62;52401.22;4990774;28;19934;-77
2023/04/07 04:45:32;;;;;;;;;;;;;;;-144.99;77.65;52391.03;4995354;28;19936;-78
2023/04/07 04:47:58;;;;;;;;;;;;;;;-144.99;77.39;52352.28;4999916;28;19961;-79
2023/04/07 04:50:25;;;;;;;;;;;;;;;-144.99;77.36;52378.78;4995508;28;19930;-77
2023/04/07 04:52:51;;;;;;;;;;;;;;;-144.99;77.37;52386.94;4989511;28;20371;-76
2023/04/07 04:55:18;;;;;;;;;;;;;;;-144.99;77.28;52370.63;4991414;28;19968;-77
2023/04/07 04:57:45;;;;;;;;;;;;;;;-144.99;77.33;52378.78;4983206;28;19973;-77
2023/04/07 05:00:12;;;;;;;;;;;;;;;-144.99;77.51;52395.09;4991414;28;20036;-80
2023/04/07 05:02:39;;;;;;;;;;;;;;;-144.99;77.14;52374.72;4993106;28;19949;-80
2023/04/07 05:05:06;;;;;;;;;;;;;;;-144.99;77.03;52386.94;4991598;28;20020;-78
2023/04/07 05:07:32;;;;;;;;;;;;;;;-144.99;76.91;52366.56;4993613;28;20356;-78
2023/04/07 05:10:00;;;;;;;;;;;;;;;-144.99;76.93;52366.56;4993048;28;19969;-79
2023/04/07 05:12:26;;;;;;;;;;;;;;;-144.99;76.89;52421.59;4985043;28;20128;-79
2023/04/07 05:14:54;;;;;;;;;;;;;;;-144.99;76.81;52358.41;4992088;28;19968;-79
2023/04/07 05:17:21;;;;;;;;;;;;;;;-144.99;76.73;52370.63;4989772;28;19965;-79
2023/04/07 05:19:47;;;;;;;;;;;;;;;-144.99;76.66;52360.44;4991790;28;20084;-79
2023/04/07 05:22:13;;;;;;;;;;;;;;;-144.99;76.50;52366.56;5003793;28;19952;-81
2023/04/07 05:24:40;;;;;;;;;;;;;;;-144.99;76.34;52421.59;4993792;28;19968;-80
2023/04/07 05:27:06;;;;;;;;;;;;;;;-144.99;76.18;52370.63;4990910;28;20035;-80
2023/04/07 05:29:33;;;;;;;;;;;;;;;-144.99;76.20;52350.25;4990505;28;20011;-78
2023/04/07 05:32:01;;;;;;;;;;;;;;;-144.99;75.95;52374.72;4990147;28;20019;-76
2023/04/07 05:34:27;;;;;;;;;;;;;;;-144.99;75.93;52333.94;4993636;28;20373;-77
2023/04/07 05:36:54;;;;;;;;;;;;;;;-144.99;75.74;52382.88;4990349;28;20302;-77
2023/04/07 05:39:20;;;;;;;;;;;;;;;-144.99;75.58;52366.56;4984116;28;19933;-78
2023/04/07 05:41:47;;;;;;;;;;;;;;;-144.99;75.56;52364.53;4992453;28;20411;-79
2023/04/07 05:44:13;;;;;;;;;;;;;;;-144.99;75.35;52354.34;5001396;28;19932;-77
2023/04/07 05:46:40;;;;;;;;;;;;;;;-144.99;75.39;52382.88;4991316;28;19945;-78
2023/04/07 05:49:07;;;;;;;;;;;;;;;-144.99;75.20;52333.94;4990943;28;19961;-78
2023/04/07 05:51:34;;;;;;;;;;;;;;;-144.99;75.03;52333.94;4990041;28;19949;-79
2023/04/07 05:54:02;;;;;;;;;;;;;;;-144.99;74.92;52340.06;5000524;28;19926;-80
2023/04/07 05:56:28;;;;;;;;;;;;;;;-144.99;74.59;52382.88;5006521;28;20265;-79
2023/04/07 05:58:55;;;;;;;;;;;;;;;-144.99;74.44;52346.19;4998202;28;19933;-75
2023/04/07 06:01:22;;;;;;;;;;;;;;;-144.99;74.48;52360.44;4999673;28;19930;-82
2023/04/07 06:03:48;;;;;;;;;;;;;;;-144.99;74.21;52358.41;4997816;28;20000;-80
2023/04/07 06:06:16;;;;;;;;;;;;;;;-144.99;74.15;52364.53;4998746;28;19997;-80
2023/04/07 06:08:43;;;;;;;;;;;;;;;-144.99;74.05;52370.63;5001188;28;19926;-81
2023/04/07 06:11:10;;;;;;;;;;;;;;;-144.99;73.73;52329.88;4995482;28;19973;-82
2023/04/07 06:13:36;;;;;;;;;;;;;;;-144.99;73.71;52358.41;4995085;28;20400;-78
2023/04/07 06:16:03;;;;;;;;;;;;;;;-144.99;73.63;52325.81;4995683;28;19926;-82
2023/04/07 06:18:29;;;;;;;;;;;;;;;-144.99;73.34;52395.09;4996968;28;19937;-83
2023/04/07 06:20:56;;;;;;;;;;;;;;;-144.99;73.25;52329.88;4997595;28;19957;-82
2023/04/07 06:23:24;;;;;;;;;;;;;;;-144.99;73.01;52313.56;4994020;28;19941;-83
2023/04/07 06:25:52;;;;;;;;;;;;;;;-144.99;72.37;52336.00;4997373;28;19957;-81
2023/04/07 06:28:18;;;;;;;;;;;;;;;-144.99;72.54;52352.28;4994184;28;19957;-80
2023/04/07 06:30:45;;;;;;;;;;;;;;;-144.99;72.73;52348.22;4994686;28;19933;-79
2023/04/07 06:33:11;;;;;;;;;;;;;;;-144.99;72.58;52346.19;4990715;28;19980;-79
2023/04/07 06:35:39;;;;;;;;;;;;;;;-144.99;72.60;52333.94;4995415;28;20547;-79
2023/04/07 06:38:06;;;;;;;;;;;;;;;-144.99;72.22;52331.91;4996719;28;19932;-80
2023/04/07 06:40:34;;;;;;;;;;;;;;;-144.99;71.94;52333.94;4998241;28;19925;-81
2023/04/07 06:43:02;;;;;;;;;;;;;;;-144.99;71.77;52333.94;4988931;28;21263;-81
2023/04/07 06:45:29;;;;;;;;;;;;;;;-144.99;71.67;52333.94;4990382;28;19925;-78
2023/04/07 06:47:55;;;;;;;;;;;;;;;-144.99;71.45;52336.00;4992587;28;19926;-73
2023/04/07 06:50:22;;;;;;;;;;;;;;;-144.99;71.36;52333.94;4986678;28;19930;-76
2023/04/07 06:52:48;;;;;;;;;;;;;;;-144.99;71.29;52346.19;4991737;28;19930;-79
2023/04/07 06:55:15;;;;;;;;;;;;;;;-144.99;71.05;52321.72;5007226;28;19949;-78
2023/04/07 06:57:43;;;;;;;;;;;;;;;-144.99;70.76;52342.09;5009727;28;19989;-78
2023/04/07 07:00:10;;;;;;;;;;;;;;;-144.99;70.42;52325.81;4993587;28;19980;-79
2023/04/07 07:02:37;;;;;;;;;;;;;;;-144.99;70.00;52331.91;4990955;28;20308;-78
2023/04/07 07:05:04;;;;;;;;;;;;;;;-144.99;69.89;52313.56;4997651;28;19926;-78
2023/04/07 07:07:31;;;;;;;;;;;;;;;-144.99;69.48;52297.25;4990962;28;19980;-82
2023/04/07 07:09:58;;;;;;;;;;;;;;;-144.99;69.12;52313.56;4997119;28;19926;-82
2023/04/07 07:12:25;;;;;;;;;;;;;;;-144.99;69.08;52280.97;4997376;28;19930;-81
2023/04/07 07:14:53;;;;;;;;;;;;;;;-144.99;69.14;52311.53;5000861;28;20458;-81
2023/04/07 07:17:19;;;;;;;;;;;;;;;-144.99;69.01;52313.56;4999245;28;20005;-79
2023/04/07 07:19:46;;;;;;;;;;;;;;;-144.99;68.48;52285.03;5000710;28;19996;-80
2023/04/07 07:22:13;;;;;;;;;;;;;;;-144.99;68.32;52329.88;4998264;28;19934;-80
2023/04/07 07:24:39;;;;;;;;;;;;;;;-144.99;68.13;52313.56;4992097;28;19930;-82
2023/04/07 07:27:06;;;;;;;;;;;;;;;-144.99;67.74;52329.88;4999414;28;19972;-79
2023/04/07 07:29:32;;;;;;;;;;;;;;;-144.99;67.51;52325.81;4998671;28;19926;-81
2023/04/07 07:32:00;;;;;;;;;;;;;;;-144.99;67.14;52340.06;4999500;28;19929;-80
2023/04/07 07:34:27;;;;;;;;;;;;;;;-144.99;67.26;52305.41;5002009;28;19933;-79
2023/04/07 07:36:54;;;;;;;;;;;;;;;-144.99;67.02;52305.41;5003413;28;19930;-79
2023/04/07 07:39:21;;;;;;;;;;;;;;;-144.99;67.00;52354.34;4992105;28;19946;-76
2023/04/07 07:41:49;;;;;;;;;;;;;;;-144.99;66.82;52329.88;4997715;28;19926;-78
2023/04/07 07:44:15;;;;;;;;;;;;;;;-144.99;66.86;52311.53;4994935;28;19980;-79
2023/04/07 07:46:42;;;;;;;;;;;;;;;-144.99;66.54;52313.56;4996393;28;19972;-78
2023/04/07 07:49:13;;;;;;;;;;;;;;;-144.99;66.36;52346.19;4997953;28;19968;-79
2023/04/07 07:51:40;;;;;;;;;;;;;;;-144.99;66.20;52260.56;4995839;28;19930;-77
2023/04/07 07:54:06;;;;;;;;;;;;;;;-144.99;65.61;52305.41;5003269;28;20452;-78
2023/04/07 07:56:33;;;;;;;;;;;;;;;-144.99;65.57;52309.50;5005223;28;19926;-79
2023/04/07 07:58:59;;;;;;;;;;;;;;;-144.99;65.37;52293.19;5010505;28;19930;-79
2023/04/07 08:01:26;;;;;;;;;;;;;;;-144.99;65.99;52297.25;4992824;28;19960;-79
2023/04/07 08:03:52;;;;;;;;;;;;;;;-144.99;65.66;52305.41;4996694;28;19934;-79
2023/04/07 08:06:20;;;;;;;;;;;;;;;-144.99;65.68;52309.50;4991998;28;19933;-79
2023/04/07 08:08:47;;;;;;;;;;;;;;;-144.99;64.82;52309.50;4986111;28;19944;-81
2023/04/07 08:11:13;;;;;;;;;;;;;;;-144.99;64.80;52301.34;4992586;28;19929;-79
2023/04/07 08:13:44;;;;;;;;;;;;;;;-144.99;64.88;52309.50;4985251;28;19949;-78
2023/04/07 08:16:10;;;;;;;;;;;;;;;-144.99;64.03;52301.34;4997509;28;19922;-79
2023/04/07 08:18:37;;;;;;;;;;;;;;;-144.99;63.82;52264.66;5010976;28;19972;-82
2023/04/07 08:21:04;;;;;;;;;;;;;;;-144.99;63.30;52321.72;4992764;28;20333;-81
2023/04/07 08:23:32;;;;;;;;;;;;;;;-144.99;63.33;52276.88;4997274;28;19926;-78
2023/04/07 08:25:58;;;;;;;;;;;;;;;-144.99;63.24;52309.50;5001787;28;19929;-77
2023/04/07 08:28:25;;;;;;;;;;;;;;;-144.99;63.22;52276.88;5001677;28;19925;-77
2023/04/07 08:30:52;;;;;;;;;;;;;;;-144.99;62.76;52250.38;4987879;28;19961;-79
2023/04/07 08:33:18;;;;;;;;;;;;;;;-144.99;62.46;52291.16;4984801;28;20422;-77
2023/04/07 08:35:46;;;;;;;;;;;;;;;-144.99;62.57;52295.22;4987726;28;19952;-80
2023/04/07 08:38:12;;;;;;;;;;;;;;;-144.99;62.64;52285.03;4995105;28;19934;-79
2023/04/07 08:40:41;;;;;;;;;;;;;;;-144.99;62.55;52248.34;4988914;28;20451;-77
2023/04/07 08:43:08;;;;;;;;;;;;;;;-144.99;62.92;52285.03;4989656;28;19926;-77
2023/04/07 08:45:38;;;;;;;;;;;;;;;-144.99;62.23;52305.41;4988662;28;19933;-77
2023/04/07 08:48:09;;;;;;;;;;;;;;;-144.99;61.59;52256.50;5000937;28;19961;-79
2023/04/07 08:50:37;;;;;;;;;;;;;;;-144.99;61.59;52236.13;5001156;28;20001;-79
2023/04/07 08:53:06;;;;;;;;;;;;;;;-144.99;61.64;52305.41;5001507;28;19933;-78
2023/04/07 08:55:35;;;;;;;;;;;;;;;-144.99;61.41;52238.16;5000808;28;19933;-81
2023/04/07 08:58:03;;;;;;;;;;;;;;;-144.99;61.45;52270.78;4999271;28;19961;-79
2023/04/07 09:00:30;;;;;;;;;;;;;;;-144.99;61.96;52264.66;4997529;28;19985;-79
2023/04/07 09:02:57;;;;;;;;;;;;;;;-144.99;61.50;52264.66;4984839;28;19926;-78
2023/04/07 09:05:25;;;;;;;;;;;;;;;-144.99;61.37;52256.50;4998213;28;19987;-80
2023/04/07 09:07:51;;;;;;;;;;;;;;;-144.99;61.52;52313.56;4999043;28;19926;-78
2023/04/07 09:10:18;;;;;;;;;;;;;;;-144.99;61.70;52333.94;5000538;28;19937;-78
2023/04/07 09:12:44;;;;;;;;;;;;;;;-144.99;61.84;52293.19;4993650;28;19992;-78
2023/04/07 09:15:12;;;;;;;;;;;;;;;-144.99;62.18;52244.28;4999193;28;19925;-78
2023/04/07 09:17:39;;;;;;;;;;;;;;;-144.99;62.10;52252.44;4997597;28;19929;-78
2023/04/07 09:20:06;;;;;;;;;;;;;;;-144.99;62.25;52301.34;4998647;28;19945;-80
2023/04/07 09:22:38;;;;;;;;;;;;;;;-144.99;62.01;52285.03;4999422;28;19925;-79
2023/04/07 09:25:11;;;;;;;;;;;;;;;-144.99;62.08;52270.78;4985717;28;19941;-79
2023/04/07 09:27:38;;;;;;;;;;;;;;;-144.99;61.95;52272.81;4982475;28;19930;-78
2023/04/07 09:30:11;;;;;;;;;;;;;;;-144.99;61.68;52236.13;4998254;28;20180;-78
2023/04/07 09:32:40;;;;;;;;;;;;;;;-144.99;61.49;52264.66;4995373;28;19930;-77
2023/04/07 09:35:06;;;;;;;;;;;;;;;-144.99;61.05;52244.28;4997987;28;20500;-78
2023/04/07 09:37:33;;;;;;;;;;;;;;;-144.99;60.20;52225.94;4996061;28;20455;-79
2023/04/07 09:40:00;;;;;;;;;;;;;;;-144.99;60.21;52264.66;4996771;28;20360;-78
2023/04/07 09:42:31;;;;;;;;;;;;;;;-144.99;59.19;52264.66;4996314;28;20356;-78
2023/04/07 09:44:57;;;;;;;;;;;;;;;-144.99;58.53;52236.13;4996733;28;19929;-78
2023/04/07 09:47:26;;;;;;;;;;;;;;;-144.99;58.12;52221.84;4994592;28;19958;-79
2023/04/07 09:49:55;;;;;;;;;;;;;;;-144.99;58.41;52215.75;4993179;28;19926;-78
2023/04/07 09:52:22;;;;;;;;;;;;;;;-144.99;58.35;52211.66;4995999;28;19926;-81
2023/04/07 09:54:50;;;;;;;;;;;;;;;-144.99;57.80;52244.28;4997045;28;19930;-79
2023/04/07 09:57:18;;;;;;;;;;;;;;;-144.99;57.53;52244.28;4995371;28;20435;-78
2023/04/07 09:59:44;;;;;;;;;;;;;;;-144.99;57.71;52256.50;4988377;28;19957;-78
2023/04/07 10:02:11;;;;;;;;;;;;;;;-144.99;58.48;52240.19;4992488;28;19984;-78
2023/04/07 10:04:39;;;;;;;;;;;;;;;-144.99;58.13;52209.63;4995526;28;19953;-78
2023/04/07 10:07:07;;;;;;;;;;;;;;;-144.99;58.38;52187.19;4996889;28;20304;-80
2023/04/07 10:09:34;;;;;;;;;;;;;;;-144.99;58.45;52211.66;4994875;28;19936;-81
2023/04/07 10:12:00;;;;;;;;;;;;;;;-144.99;57.66;52199.44;4988078;28;19930;-79
2023/04/07 10:14:28;;;;;;;;;;;;;;;-144.99;57.45;52174.97;4980317;28;21242;-78
2023/04/07 10:16:54;;;;;;;;;;;;;;;-144.99;56.83;52146.44;4981113;28;19995;-79
2023/04/07 10:19:21;;;;;;;;;;;;;;;-144.99;57.15;52215.75;4983931;28;19988;-79
2023/04/07 10:21:50;;;;;;;;;;;;;;;-144.99;56.28;52199.44;4994069;28;20378;-80
2023/04/07 10:24:33;;;;;;;;;;;;;;;-144.99;56.22;52170.91;4997116;28;19926;-81
2023/04/07 10:27:04;;;;;;;;;;;;;;;-144.99;56.16;52162.75;4996335;28;19930;-79
2023/04/07 10:29:34;;;;;;;;;;;;;;;-144.99;55.53;52181.09;5001023;28;19932;-80
2023/04/07 10:32:02;;;;;;;;;;;;;;;-144.99;56.00;52211.66;4999019;28;19930;-79
2023/04/07 10:34:47;;;;;;;;;;;;;;;-144.99;56.09;52179.06;5001356;28;19933;-80
2023/04/07 10:37:16;;;;;;;;;;;;;;;-144.99;55.58;52223.88;4999893;28;19925;-80
2023/04/07 10:39:44;;;;;;;;;;;;;;;-144.99;55.44;52187.19;5001264;28;19930;-81
2023/04/07 10:42:26;;;;;;;;;;;;;;;-144.99;55.08;52193.31;4996644;28;19981;-78
2023/04/07 10:44:52;;;;;;;;;;;;;;;-144.99;54.77;52203.50;4996820;28;19988;-79
2023/04/07 10:47:19;;;;;;;;;;;;;;;-144.99;55.06;52162.75;4987490;28;19930;-78
2023/04/07 10:50:04;;;;;;;;;;;;;;;-144.99;55.17;52101.59;4986279;28;19984;-78
2023/04/07 10:52:31;;;;;;;;;;;;;;;-144.99;54.94;52093.44;4978884;28;19937;-79
2023/04/07 10:55:16;;;;;;;;;;;;;;;-144.99;54.88;52126.06;4989820;28;20031;-77
2023/04/07 10:58:12;;;;;;;;;;;;;;;-144.99;54.74;52069.00;4989446;28;19926;-79
2023/04/07 11:00:39;;;;;;;;;;;;;;;-144.99;54.54;52081.22;4987302;28;19961;-77
2023/04/07 11:03:11;;;;;;;;;;;;;;;-144.99;54.45;52109.75;4996064;28;20404;-79
2023/04/07 11:05:38;;;;;;;;;;;;;;;-144.99;54.69;52109.75;4995885;28;19926;-78
2023/04/07 11:08:06;;;;;;;;;;;;;;;-144.99;54.97;52107.72;5007741;28;19933;-79
2023/04/07 11:10:33;;;;;;;;;;;;;;;-144.99;54.78;52134.22;5009791;28;19926;-77
2023/04/07 11:13:08;;;;;;;;;;;;;;;-144.99;54.63;52126.06;5011493;28;19930;-77
2023/04/07 11:15:34;;;;;;;;;;;;;;;-144.99;55.05;52121.97;5009589;28;19926;-78
2023/04/07 11:18:12;;;;;;;;;;;;;;;-144.99;54.84;52081.22;4995618;28;19929;-78
2023/04/07 11:20:42;;;;;;;;;;;;;;;-144.99;55.53;52066.97;4995415;28;19941;-76
2023/04/07 11:23:09;;;;;;;;;;;;;;;-144.99;54.68;52040.47;4995727;28;19976;-77
2023/04/07 11:25:36;;;;;;;;;;;;;;;-144.99;55.07;52032.31;5001214;28;19926;-79
2023/04/07 11:28:03;;;;;;;;;;;;;;;-144.99;54.56;52036.38;4991190;28;19934;-77
2023/04/07 11:30:31;;;;;;;;;;;;;;;-144.99;54.54;52020.09;4982715;28;19988;-77
2023/04/07 11:32:58;;;;;;;;;;;;;;;-144.99;54.20;51995.63;4994424;28;20005;-77
2023/04/07 11:35:25;;;;;;;;;;;;;;;-144.99;53.88;51954.88;5007291;28;20105;-80
2023/04/07 11:37:56;;;;;;;;;;;;;;;-144.99;53.32;51981.38;5015057;28;19934;-78
2023/04/07 11:40:31;;;;;;;;;;;;;;;-144.99;53.39;51971.16;4997052;28;19972;-78
2023/04/07 11:42:57;;;;;;;;;;;;;;;-144.99;53.82;52009.91;4994195;28;19930;-77
2023/04/07 11:45:24;;;;;;;;;;;;;;;-144.99;55.02;52036.38;4995154;28;19926;-77
2023/04/07 11:47:52;;;;;;;;;;;;;;;-144.99;54.56;51999.69;4995240;28;19925;-77
2023/04/07 11:50:33;;;;;;;;;;;;;;;-144.99;54.33;52036.38;4994009;28;20389;-78
2023/04/07 11:53:00;;;;;;;;;;;;;;;-144.99;54.19;52001.75;4997759;28;19937;-78
2023/04/07 11:55:28;;;;;;;;;;;;;;;-144.99;54.25;51999.69;4998407;28;20025;-77
2023/04/07 11:57:55;;;;;;;;;;;;;;;-144.99;54.56;52001.75;4998519;28;19926;-76
2023/04/07 12:00:22;;;;;;;;;;;;;;;-144.99;54.16;51987.47;4990636;28;20016;-78
2023/04/07 12:02:49;;;;;;;;;;;;;;;-144.99;54.61;51963.03;5002086;28;19979;-77
2023/04/07 12:05:17;;;;;;;;;;;;;;;-144.99;54.04;51999.69;4994321;28;19980;-78
2023/04/07 12:07:52;;;;;;;;;;;;;;;-144.99;53.96;51995.63;4993612;28;19926;-78
2023/04/07 12:10:19;;;;;;;;;;;;;;;-144.99;54.12;51983.41;4993977;28;19926;-79
2023/04/07 12:12:46;;;;;;;;;;;;;;;-144.99;53.64;51987.47;4995515;28;20028;-77
2023/04/07 12:15:13;;;;;;;;;;;;;;;-144.99;53.54;51967.09;4995224;28;19999;-77
2023/04/07 12:17:44;;;;;;;;;;;;;;;-144.99;53.25;51950.78;4993762;28;19929;-78
2023/04/07 12:20:11;;;;;;;;;;;;;;;-144.99;53.25;51960.97;4997883;28;19997;-78
2023/04/07 12:22:39;;;;;;;;;;;;;;;-144.99;52.99;51960.97;5002744;28;19926;-78
2023/04/07 12:25:06;;;;;;;;;;;;;;;-144.99;53.15;51975.25;5003654;28;20435;-78
2023/04/07 12:27:33;;;;;;;;;;;;;;;-144.99;53.32;51987.47;4993846;28;19961;-77
2023/04/07 12:29:59;;;;;;;;;;;;;;;-144.99;52.68;51946.72;4995948;28;19972;-79